Time;durP1;ratioP1;P1;durP2;ratioP2;P2;SDS_P1;SDS_P2;PMS_P1;PMS_P2;Temp;Humidity;BMP_temperature;BMP_pressure;BME280_temperature;BME280_humidity;BME280_pressure;Samples;Min_cycle;Max_cycle;Signal;HPM_P1;HPM_P2
2022/05/11 00:01:47;;;;;;;1.73;1.63;;;21.00;51.20;;;;;;5071794;28;43512;-61
2022/05/11 00:04:16;;;;;;;1.83;1.60;;;21.00;51.10;;;;;;5072559;28;43481;-61
2022/05/11 00:06:44;;;;;;;1.70;1.60;;;21.00;51.20;;;;;;5069908;28;43872;-61
2022/05/11 00:09:13;;;;;;;1.77;1.52;;;21.00;51.20;;;;;;5071050;28;43680;-61
2022/05/11 00:11:42;;;;;;;1.60;1.50;;;21.00;51.20;;;;;;5073011;28;43376;-61
2022/05/11 00:14:11;;;;;;;1.88;1.67;;;21.00;51.20;;;;;;5072811;28;43486;-61
2022/05/11 00:16:40;;;;;;;1.92;1.80;;;21.00;51.20;;;;;;5069860;28;43904;-61
2022/05/11 00:19:08;;;;;;;1.60;1.50;;;21.00;51.20;;;;;;5075700;27;43493;-61
2022/05/11 00:21:36;;;;;;;1.73;1.63;;;21.00;51.20;;;;;;5073158;28;43418;-61
2022/05/11 00:24:03;;;;;;;1.77;1.65;;;21.00;51.20;;;;;;5071441;28;43447;-61
2022/05/11 00:26:31;;;;;;;2.95;1.60;;;21.00;51.30;;;;;;5066400;28;44170;-61
2022/05/11 00:28:58;;;;;;;1.70;1.60;;;21.00;51.30;;;;;;5075076;27;43404;-61
2022/05/11 00:31:26;;;;;;;1.80;1.70;;;20.90;51.20;;;;;;5072758;28;43577;-61
2022/05/11 00:33:53;;;;;;;1.80;1.70;;;20.90;51.20;;;;;;5070301;28;43446;-61
2022/05/11 00:36:21;;;;;;;1.70;1.60;;;20.90;51.20;;;;;;5073133;28;43778;-61
2022/05/11 00:38:48;;;;;;;2.17;1.40;;;20.90;51.20;;;;;;5075257;27;44026;-61
2022/05/11 00:41:16;;;;;;;1.83;1.73;;;20.90;51.20;;;;;;5071943;28;43469;-61
2022/05/11 00:43:53;;;;;;;1.60;1.50;;;20.90;51.20;;;;;;5068482;28;43522;-61
2022/05/11 00:46:27;;;;;;;1.60;1.50;;;20.90;51.20;;;;;;5069490;28;44657;-61
2022/05/11 00:51:49;;;;;;;1.60;1.50;;;20.90;51.30;;;;;;5068028;28;43487;-62
2022/05/11 00:54:19;;;;;;;1.70;1.60;;;20.90;51.30;;;;;;5071860;28;43562;-61
2022/05/11 00:56:51;;;;;;;1.77;1.67;;;20.90;52.00;;;;;;5070262;28;43775;-61
2022/05/11 00:59:27;;;;;;;2.05;1.75;;;20.80;51.20;;;;;;5069177;28;43707;-61
2022/05/11 01:01:59;;;;;;;1.88;1.77;;;20.90;51.30;;;;;;5067000;28;43379;-61
2022/05/11 01:04:27;;;;;;;1.50;1.40;;;20.80;51.30;;;;;;5070530;27;43633;-61
2022/05/11 01:06:57;;;;;;;1.60;1.50;;;20.80;51.30;;;;;;5068704;28;43814;-61
2022/05/11 01:09:24;;;;;;;1.90;1.80;;;20.80;51.30;;;;;;5068022;28;43551;-61
2022/05/11 01:11:58;;;;;;;1.83;1.73;;;20.80;51.30;;;;;;5067106;28;43557;-61
2022/05/11 01:14:31;;;;;;;1.58;1.48;;;20.80;51.30;;;;;;5067073;28;43579;-61
2022/05/11 01:16:59;;;;;;;1.73;1.60;;;20.80;51.30;;;;;;5059765;28;44683;-61
2022/05/11 01:19:32;;;;;;;1.70;1.60;;;20.80;51.30;;;;;;5067134;28;43958;-61
2022/05/11 01:22:16;;;;;;;1.50;1.40;;;20.80;51.30;;;;;;5067134;28;43420;-61
2022/05/11 01:24:46;;;;;;;1.90;1.80;;;20.80;51.30;;;;;;5068576;28;44014;-61
2022/05/11 01:27:28;;;;;;;1.83;1.70;;;20.80;51.40;;;;;;5068078;28;43852;-61
2022/05/11 01:30:05;;;;;;;1.70;1.60;;;20.80;51.40;;;;;;5067145;28;44012;-61
2022/05/11 01:32:32;;;;;;;1.70;1.60;;;20.70;51.30;;;;;;5069032;28;44044;-61
2022/05/11 01:35:38;;;;;;;1.48;1.42;;;20.70;51.30;;;;;;5068861;28;43571;-61
2022/05/11 01:38:33;;;;;;;1.88;1.70;;;20.80;51.40;;;;;;5066847;28;43886;-61
2022/05/11 01:41:01;;;;;;;1.50;1.40;;;20.70;51.40;;;;;;5065399;28;43722;-61
2022/05/11 01:43:33;;;;;;;1.60;1.50;;;20.70;51.40;;;;;;5069557;28;43527;-61
2022/05/11 01:46:01;;;;;;;1.80;1.70;;;20.70;51.40;;;;;;5066537;28;43463;-61
2022/05/11 01:48:29;;;;;;;2.03;1.60;;;20.70;51.40;;;;;;5068421;28;44994;-61
2022/05/11 01:50:57;;;;;;;1.58;1.48;;;20.70;51.50;;;;;;5068669;28;44842;-61
2022/05/11 01:53:25;;;;;;;1.60;1.30;;;20.70;51.40;;;;;;5065842;28;43513;-61
2022/05/11 01:55:53;;;;;;;1.65;1.55;;;20.70;51.40;;;;;;5066511;27;43612;-61
2022/05/11 01:58:22;;;;;;;1.70;1.60;;;20.70;51.40;;;;;;5068502;28;43743;-61
2022/05/11 02:00:51;;;;;;;1.80;1.70;;;20.70;51.50;;;;;;5068731;28;43950;-61
2022/05/11 02:03:20;;;;;;;1.67;1.58;;;20.70;51.40;;;;;;5070492;27;43467;-61
2022/05/11 02:08:37;;;;;;;1.65;1.55;;;20.70;51.50;;;;;;5068088;28;43787;-61
2022/05/11 02:11:05;;;;;;;1.65;1.55;;;20.70;51.50;;;;;;5070836;28;43472;-61
2022/05/11 02:13:33;;;;;;;1.70;1.60;;;20.70;51.50;;;;;;5067363;28;44004;-61
2022/05/11 02:16:01;;;;;;;1.98;1.83;;;20.70;51.50;;;;;;5067253;28;43577;-60
2022/05/11 02:18:30;;;;;;;2.05;1.75;;;20.60;51.50;;;;;;5067829;28;43747;-61
2022/05/11 02:20:57;;;;;;;1.60;1.50;;;20.60;51.50;;;;;;5059787;28;43568;-61
2022/05/11 02:23:25;;;;;;;1.75;1.65;;;20.60;51.50;;;;;;5066033;28;43916;-60
2022/05/11 02:25:53;;;;;;;1.60;1.50;;;20.60;51.50;;;;;;5067523;28;43650;-61
2022/05/11 02:28:22;;;;;;;1.70;1.60;;;20.60;51.50;;;;;;5064134;28;44667;-61
2022/05/11 02:30:52;;;;;;;2.15;1.67;;;20.60;51.50;;;;;;5067911;28;43685;-61
2022/05/11 02:33:21;;;;;;;1.98;1.50;;;20.60;51.50;;;;;;5064581;28;43566;-61
2022/05/11 02:35:50;;;;;;;1.67;1.58;;;20.60;51.50;;;;;;5067303;28;43597;-61
2022/05/11 02:38:29;;;;;;;1.55;1.45;;;20.60;51.50;;;;;;5067618;28;44571;-61
2022/05/11 02:40:57;;;;;;;1.65;1.55;;;20.60;51.50;;;;;;5066806;28;43401;-61
2022/05/11 02:43:24;;;;;;;1.50;1.40;;;20.60;51.50;;;;;;5067263;28;43555;-61
2022/05/11 02:45:52;;;;;;;1.38;1.27;;;20.60;51.60;;;;;;5067363;28;43490;-61
2022/05/11 02:48:22;;;;;;;1.25;1.25;;;20.60;51.60;;;;;;5067371;28;44120;-61
2022/05/11 02:50:53;;;;;;;1.65;1.55;;;20.60;51.60;;;;;;5081752;27;43713;-61
2022/05/11 02:53:22;;;;;;;1.90;1.80;;;20.60;51.60;;;;;;5067618;28;43948;-61
2022/05/11 02:55:51;;;;;;;1.50;1.40;;;20.50;51.60;;;;;;5062566;28;43454;-62
2022/05/11 02:58:22;;;;;;;1.50;1.40;;;20.50;51.50;;;;;;5067187;28;43794;-61
2022/05/11 03:00:51;;;;;;;1.52;1.42;;;20.50;51.60;;;;;;5064917;28;43429;-61
2022/05/11 03:03:20;;;;;;;1.65;1.55;;;20.50;51.60;;;;;;5067209;28;43524;-61
2022/05/11 03:05:48;;;;;;;1.60;1.50;;;20.50;51.60;;;;;;5066724;28;43600;-61
2022/05/11 03:08:16;;;;;;;1.50;1.40;;;20.50;51.60;;;;;;5069648;27;44060;-61
2022/05/11 03:10:44;;;;;;;1.73;1.40;;;20.50;51.60;;;;;;5064063;28;43536;-61
2022/05/11 03:13:11;;;;;;;1.52;1.42;;;20.50;51.60;;;;;;5066023;28;43481;-61
2022/05/11 03:15:40;;;;;;;1.52;1.42;;;20.50;51.60;;;;;;5066770;28;43442;-61
2022/05/11 03:18:07;;;;;;;1.80;1.70;;;20.50;51.60;;;;;;5070043;27;44731;-61
2022/05/11 03:20:35;;;;;;;1.80;1.70;;;20.50;51.60;;;;;;5067168;28;43945;-61
2022/05/11 03:23:02;;;;;;;1.75;1.40;;;20.50;51.60;;;;;;5063798;28;43570;-61
2022/05/11 03:25:30;;;;;;;1.30;1.20;;;20.50;51.60;;;;;;5067713;28;43975;-61
2022/05/11 03:27:58;;;;;;;1.58;1.48;;;20.50;51.60;;;;;;5067759;27;44705;-61
2022/05/11 03:30:26;;;;;;;1.60;1.50;;;20.50;51.70;;;;;;5067082;28;43704;-61
2022/05/11 03:35:39;;;;;;;1.50;1.40;;;20.50;51.70;;;;;;5068776;28;43538;-61
2022/05/11 03:38:07;;;;;;;1.83;1.30;;;20.50;51.60;;;;;;5064601;27;43803;-61
2022/05/11 03:40:38;;;;;;;1.52;1.42;;;20.40;51.60;;;;;;5066837;28;44261;-61
2022/05/11 03:43:06;;;;;;;2.35;1.48;;;20.40;51.60;;;;;;5066959;28;43424;-61
2022/05/11 03:45:34;;;;;;;1.70;1.40;;;20.40;51.60;;;;;;5066308;27;43482;-61
2022/05/11 03:48:02;;;;;;;1.27;1.17;;;20.50;51.70;;;;;;5065013;28;45959;-61
2022/05/11 03:50:29;;;;;;;1.50;1.40;;;20.40;51.60;;;;;;5066618;28;43511;-61
2022/05/11 03:52:57;;;;;;;1.55;1.45;;;20.40;52.30;;;;;;5064837;28;43578;-61
2022/05/11 03:55:26;;;;;;;1.55;1.45;;;20.40;51.60;;;;;;5067407;27;43488;-60
2022/05/11 03:57:54;;;;;;;1.50;1.40;;;20.40;51.60;;;;;;5072995;28;44718;-61
2022/05/11 04:00:24;;;;;;;1.52;1.42;;;20.40;51.60;;;;;;5064899;28;43577;-61
2022/05/11 04:02:54;;;;;;;1.70;1.60;;;20.40;51.70;;;;;;5067206;28;43516;-61
2022/05/11 04:05:22;;;;;;;1.58;1.48;;;20.40;51.70;;;;;;5065804;27;43527;-61
2022/05/11 04:07:49;;;;;;;2.08;1.60;;;20.40;51.70;;;;;;5066374;28;44977;-61
2022/05/11 04:10:18;;;;;;;1.50;1.40;;;20.40;51.60;;;;;;5060567;28;43528;-61
2022/05/11 04:12:46;;;;;;;1.60;1.50;;;20.40;51.70;;;;;;5065866;28;43406;-61
2022/05/11 04:15:15;;;;;;;1.58;1.48;;;20.40;51.70;;;;;;5064025;27;43469;-61
2022/05/11 04:17:44;;;;;;;1.50;1.40;;;20.40;51.70;;;;;;5068468;28;44688;-61
2022/05/11 04:20:15;;;;;;;1.50;1.40;;;20.40;51.70;;;;;;5076001;28;43696;-61
2022/05/11 04:22:47;;;;;;;1.52;1.20;;;20.40;51.90;;;;;;5072935;27;43426;-60
2022/05/11 04:25:16;;;;;;;1.77;1.50;;;20.40;51.90;;;;;;5069762;28;43508;-60
2022/05/11 04:27:48;;;;;;;1.60;1.50;;;20.40;51.90;;;;;;5069226;28;44112;-61
2022/05/11 04:30:19;;;;;;;1.50;1.38;;;20.40;51.90;;;;;;5069675;28;43466;-60
2022/05/11 04:32:46;;;;;;;1.30;1.20;;;20.40;51.90;;;;;;5067927;28;43495;-60
2022/05/11 04:35:14;;;;;;;1.60;1.38;;;20.30;51.70;;;;;;5069323;28;43426;-60
2022/05/11 04:37:41;;;;;;;1.80;1.67;;;20.30;51.70;;;;;;5069112;28;43814;-60
2022/05/11 04:40:11;;;;;;;1.50;1.40;;;20.30;51.70;;;;;;5069566;28;43453;-60
2022/05/11 04:42:43;;;;;;;1.75;1.15;;;20.40;51.80;;;;;;5082938;27;43405;-62
2022/05/11 04:45:13;;;;;;;1.27;1.17;;;20.40;51.80;;;;;;5068945;28;43596;-60
2022/05/11 04:47:40;;;;;;;1.40;1.30;;;20.30;51.80;;;;;;5069193;28;45120;-60
2022/05/11 04:50:08;;;;;;;1.35;1.25;;;20.30;51.80;;;;;;5067943;28;44083;-60
2022/05/11 04:52:36;;;;;;;1.70;1.50;;;20.30;51.80;;;;;;5069705;28;43522;-61
2022/05/11 04:55:06;;;;;;;1.50;1.40;;;20.30;51.90;;;;;;5069502;28;43447;-61
2022/05/11 04:57:35;;;;;;;1.52;1.42;;;20.30;51.90;;;;;;5069271;28;44201;-61
2022/05/11 05:00:09;;;;;;;1.40;1.30;;;20.30;52.00;;;;;;5069348;28;43848;-61
2022/05/11 05:02:36;;;;;;;1.30;1.20;;;20.30;52.00;;;;;;5070260;28;43477;-61
2022/05/11 05:05:10;;;;;;;1.40;1.30;;;20.20;52.00;;;;;;5069427;28;43555;-61
2022/05/11 05:07:39;;;;;;;1.20;1.20;;;20.30;52.00;;;;;;5069125;28;44731;-61
2022/05/11 05:10:09;;;;;;;1.20;1.20;;;20.20;52.00;;;;;;5064009;28;43511;-61
2022/05/11 05:12:37;;;;;;;1.30;1.20;;;20.20;52.00;;;;;;5069097;28;43470;-61
2022/05/11 05:15:05;;;;;;;2.15;1.23;;;20.30;52.10;;;;;;5068741;28;43514;-60
2022/05/11 05:17:33;;;;;;;1.10;1.10;;;20.30;52.00;;;;;;5067940;28;44120;-61
2022/05/11 05:20:01;;;;;;;1.40;1.30;;;20.30;52.00;;;;;;5070133;28;43508;-61
2022/05/11 05:22:28;;;;;;;1.20;1.10;;;20.30;52.10;;;;;;5069331;28;43469;-61
2022/05/11 05:24:56;;;;;;;1.30;1.20;;;20.20;52.00;;;;;;5068926;28;43457;-60
2022/05/11 05:27:24;;;;;;;1.30;1.20;;;20.20;52.10;;;;;;5065813;28;44979;-60
2022/05/11 05:32:41;;;;;;;1.33;1.20;;;20.30;52.70;;;;;;5068830;28;43463;-60
2022/05/11 05:35:13;;;;;;;1.23;1.10;;;20.20;52.00;;;;;;5068323;28;43442;-61
2022/05/11 05:37:40;;;;;;;1.45;1.30;;;20.20;52.00;;;;;;5066983;28;44869;-60
2022/05/11 05:40:08;;;;;;;1.38;1.27;;;20.20;52.00;;;;;;5068361;28;43709;-60
2022/05/11 05:42:36;;;;;;;1.52;1.33;;;20.20;52.10;;;;;;5068442;28;43458;-60
2022/05/11 05:45:06;;;;;;;2.13;1.20;;;20.30;52.60;;;;;;5067368;28;44057;-61
2022/05/11 05:47:34;;;;;;;2.30;1.20;;;20.30;52.30;;;;;;5068956;27;45069;-60
2022/05/11 05:50:02;;;;;;;0.98;0.98;;;20.30;52.10;;;;;;5068231;28;43708;-60
2022/05/11 05:52:35;;;;;;;1.50;1.40;;;20.20;52.10;;;;;;5068667;28;43452;-60
2022/05/11 05:55:03;;;;;;;1.40;1.30;;;20.30;52.10;;;;;;5069668;28;44091;-60
2022/05/11 05:57:32;;;;;;;1.42;1.33;;;20.20;52.00;;;;;;5067205;27;43811;-60
2022/05/11 06:00:00;;;;;;;1.83;1.20;;;20.30;52.10;;;;;;5068554;28;43924;-60
2022/05/11 06:02:31;;;;;;;1.20;1.10;;;20.30;52.10;;;;;;5068490;28;43912;-60
2022/05/11 06:04:59;;;;;;;1.38;1.23;;;20.20;52.00;;;;;;5070839;28;43597;-60
2022/05/11 06:07:26;;;;;;;2.28;1.13;;;20.20;52.00;;;;;;5068513;28;44760;-60
2022/05/11 06:09:54;;;;;;;1.25;1.15;;;20.20;51.90;;;;;;5066991;28;43523;-60
2022/05/11 06:12:21;;;;;;;1.20;1.10;;;20.30;52.00;;;;;;5062901;28;43428;-60
2022/05/11 06:14:49;;;;;;;1.40;1.30;;;20.20;51.90;;;;;;5069590;28;43476;-60
2022/05/11 06:17:19;;;;;;;1.35;1.20;;;20.20;51.90;;;;;;5067964;28;45050;-60
2022/05/11 06:19:46;;;;;;;2.07;1.23;;;20.20;52.00;;;;;;5069446;28;43416;-60
2022/05/11 06:22:14;;;;;;;1.65;1.55;;;20.20;52.00;;;;;;5067916;28;43427;-60
2022/05/11 06:24:42;;;;;;;1.60;1.50;;;20.30;52.00;;;;;;5068920;28;43443;-60
2022/05/11 06:27:21;;;;;;;1.45;1.10;;;20.20;51.90;;;;;;5068117;28;43800;-60
2022/05/11 06:29:57;;;;;;;2.22;1.50;;;20.30;52.00;;;;;;5067783;28;43404;-60
2022/05/11 06:32:25;;;;;;;1.38;1.20;;;20.20;51.90;;;;;;5069399;28;43399;-60
2022/05/11 06:34:54;;;;;;;2.92;1.40;;;20.20;51.90;;;;;;5065709;28;43522;-60
2022/05/11 06:37:23;;;;;;;1.45;1.30;;;20.20;52.00;;;;;;5067418;28;44961;-60
2022/05/11 06:39:51;;;;;;;1.65;1.20;;;20.20;52.00;;;;;;5066263;28;43378;-60
2022/05/11 06:42:20;;;;;;;1.65;1.38;;;20.20;52.00;;;;;;5067072;28;43566;-60
2022/05/11 06:44:49;;;;;;;1.25;1.15;;;20.20;51.90;;;;;;5067394;28;43498;-60
2022/05/11 06:47:17;;;;;;;1.42;1.33;;;20.20;52.00;;;;;;5060920;28;45020;-60
2022/05/11 06:49:45;;;;;;;1.58;1.10;;;20.20;51.90;;;;;;5064947;28;43492;-60
2022/05/11 06:52:13;;;;;;;1.90;1.67;;;20.20;52.00;;;;;;5067003;28;43513;-60
2022/05/11 07:00:19;;;;;;;1.17;1.10;;;20.20;52.00;;;;;;5065481;28;43688;-60
2022/05/11 07:02:46;;;;;;;2.05;1.35;;;20.20;52.00;;;;;;5067392;28;43432;-60
2022/05/11 07:05:14;;;;;;;1.83;1.30;;;20.20;52.20;;;;;;5066478;28;43517;-61
2022/05/11 07:07:41;;;;;;;1.48;1.30;;;20.20;52.10;;;;;;5067298;28;44680;-60
2022/05/11 07:10:09;;;;;;;1.63;1.30;;;20.20;52.30;;;;;;5068036;28;43672;-60
2022/05/11 07:12:43;;;;;;;1.48;1.20;;;20.20;52.20;;;;;;5068509;28;43460;-60
2022/05/11 07:15:11;;;;;;;1.60;1.30;;;20.20;52.10;;;;;;5062077;28;43546;-61
2022/05/11 07:17:40;;;;;;;2.13;1.40;;;20.20;52.10;;;;;;5066091;28;44130;-60
2022/05/11 07:20:14;;;;;;;2.75;1.40;;;20.20;52.20;;;;;;5065231;27;43582;-61
2022/05/11 07:22:42;;;;;;;2.13;1.40;;;20.20;52.20;;;;;;5067367;28;43453;-60
2022/05/11 07:25:12;;;;;;;2.45;1.48;;;20.20;52.20;;;;;;5066754;28;43521;-60
2022/05/11 07:27:40;;;;;;;1.27;1.13;;;20.20;52.10;;;;;;5069549;28;44680;-60
2022/05/11 07:30:13;;;;;;;2.95;1.50;;;20.20;52.20;;;;;;5063348;28;43420;-60
2022/05/11 07:32:40;;;;;;;1.77;1.30;;;20.20;52.50;;;;;;5062988;28;43502;-60
2022/05/11 07:35:09;;;;;;;2.60;1.23;;;20.20;52.20;;;;;;5052804;28;43475;-60
2022/05/11 07:37:36;;;;;;;2.25;1.30;;;20.20;52.20;;;;;;5060957;28;44968;-60
2022/05/11 07:40:06;;;;;;;2.70;1.52;;;20.20;52.50;;;;;;5066331;28;43480;-60
2022/05/11 07:42:34;;;;;;;3.10;1.70;;;20.20;52.40;;;;;;5066999;28;43478;-60
2022/05/11 07:45:06;;;;;;;2.80;1.52;;;20.20;52.30;;;;;;5066559;28;43531;-60
2022/05/11 07:47:33;;;;;;;2.00;1.30;;;20.20;52.40;;;;;;5078322;27;44036;-60
2022/05/11 07:50:01;;;;;;;2.35;1.40;;;20.20;52.30;;;;;;5066771;28;43492;-60
2022/05/11 07:52:29;;;;;;;2.05;1.27;;;20.20;52.90;;;;;;5065032;28;43525;-60
2022/05/11 07:54:56;;;;;;;1.70;1.33;;;20.20;52.90;;;;;;5070423;28;43469;-60
2022/05/11 08:00:10;;;;;;;1.60;1.45;;;20.30;52.30;;;;;;5070183;28;43653;-60
2022/05/11 08:02:41;;;;;;;1.98;1.20;;;20.20;52.30;;;;;;5069916;28;43493;-61
2022/05/11 08:05:11;;;;;;;2.83;1.60;;;20.20;52.30;;;;;;5065040;28;43438;-60
2022/05/11 08:07:45;;;;;;;1.73;1.53;;;20.20;52.20;;;;;;5079599;27;44754;-60
2022/05/11 08:10:16;;;;;;;1.67;1.52;;;20.30;52.40;;;;;;5069717;28;43420;-60
2022/05/11 08:12:44;;;;;;;1.80;1.25;;;20.20;52.30;;;;;;5071665;28;43495;-60
2022/05/11 08:15:14;;;;;;;1.98;1.40;;;20.30;52.30;;;;;;5067614;27;43463;-61
2022/05/11 08:17:43;;;;;;;2.20;1.43;;;20.30;52.30;;;;;;5069690;28;44031;-60
2022/05/11 08:20:15;;;;;;;1.77;1.50;;;20.30;52.40;;;;;;5064247;28;43785;-60
2022/05/11 08:22:44;;;;;;;2.70;1.40;;;20.30;52.40;;;;;;5070228;28;43477;-60
2022/05/11 08:25:14;;;;;;;1.88;1.38;;;20.30;52.30;;;;;;5070242;28;43672;-60
2022/05/11 08:27:42;;;;;;;1.75;1.40;;;20.30;52.30;;;;;;5069689;28;43787;-60
2022/05/11 08:36:09;;;;;;;1.73;1.40;;;20.30;52.40;;;;;;5068424;28;43561;-60
2022/05/11 08:38:41;;;;;;;2.10;1.40;;;20.30;52.40;;;;;;5070451;28;43821;-60
2022/05/11 08:41:19;;;;;;;2.40;1.48;;;20.30;52.40;;;;;;5068603;28;44137;-60
2022/05/11 08:43:48;;;;;;;2.45;1.50;;;20.30;52.40;;;;;;5067210;28;44032;-60
2022/05/11 08:46:43;;;;;;;4.35;1.70;;;20.30;52.40;;;;;;5070424;28;43549;-60
2022/05/11 08:49:15;;;;;;;2.63;1.70;;;20.30;52.40;;;;;;5064455;28;43806;-60
2022/05/11 08:51:55;;;;;;;3.30;1.58;;;20.30;52.40;;;;;;5069029;28;43645;-60
2022/05/11 08:54:28;;;;;;;2.53;1.63;;;20.40;52.50;;;;;;5067574;28;43416;-60
2022/05/11 08:56:56;;;;;;;1.63;1.50;;;20.30;53.20;;;;;;5067390;28;43395;-60
2022/05/11 08:59:30;;;;;;;1.75;1.30;;;20.40;52.50;;;;;;5069197;28;43965;-59
2022/05/11 09:02:05;;;;;;;2.15;1.50;;;20.40;52.50;;;;;;5070622;28;43812;-60
2022/05/11 09:04:40;;;;;;;3.05;1.83;;;20.40;52.40;;;;;;5067393;28;43461;-60
2022/05/11 09:07:09;;;;;;;3.45;1.55;;;20.40;52.20;;;;;;5068989;28;43488;-60
2022/05/11 09:09:37;;;;;;;2.60;1.50;;;20.40;52.30;;;;;;5067869;28;43800;-60
2022/05/11 09:12:07;;;;;;;2.80;1.60;;;20.40;52.30;;;;;;5067729;28;43455;-62
2022/05/11 09:14:39;;;;;;;2.58;1.50;;;20.50;52.50;;;;;;5066442;28;43376;-62
2022/05/11 09:17:23;;;;;;;2.20;1.35;;;20.50;52.40;;;;;;5064952;28;43449;-61
2022/05/11 09:20:18;;;;;;;4.00;1.80;;;20.50;52.50;;;;;;5069874;28;44082;-61
2022/05/11 09:22:59;;;;;;;3.55;1.77;;;20.50;52.50;;;;;;5067964;28;43545;-62
2022/05/11 09:25:29;;;;;;;;;;;20.50;52.50;;;;;;5070676;28;43449;-62
2022/05/11 09:28:21;;;;;;;2.30;1.40;;;20.50;52.70;;;;;;5069029;27;43424;-62
2022/05/11 09:31:06;;;;;;;2.15;1.48;;;20.60;52.40;;;;;;5068750;28;44709;-62
2022/05/11 09:33:40;;;;;;;1.58;1.48;;;20.60;52.40;;;;;;5071414;28;43742;-62
2022/05/11 09:36:11;;;;;;;2.35;1.52;;;20.60;52.40;;;;;;5067947;28;43493;-61
2022/05/11 09:39:13;;;;;;;3.35;1.73;;;20.60;52.50;;;;;;5065864;28;43503;-61
2022/05/11 09:41:50;;;;;;;2.10;1.38;;;20.60;52.30;;;;;;5068028;28;43796;-61
2022/05/11 09:44:24;;;;;;;3.08;1.67;;;20.60;52.20;;;;;;5066366;28;43467;-61
2022/05/11 09:46:53;;;;;;;3.17;1.88;;;20.60;52.30;;;;;;5068390;28;43465;-62
2022/05/11 09:49:20;;;;;;;3.00;1.67;;;20.70;52.50;;;;;;5069077;28;43477;-62
2022/05/11 09:51:50;;;;;;;3.22;1.40;;;20.70;52.50;;;;;;5068224;28;43806;-62
2022/05/11 09:54:51;;;;;;;3.00;1.63;;;20.70;52.40;;;;;;5060326;28;43533;-62
2022/05/11 09:57:23;;;;;;;2.67;1.60;;;20.70;52.30;;;;;;5067027;27;43554;-62
2022/05/11 09:59:52;;;;;;;3.10;1.60;;;20.70;52.40;;;;;;5068416;28;43426;-62
2022/05/11 10:02:25;;;;;;;2.33;1.55;;;20.70;52.40;;;;;;5068177;28;43796;-62
2022/05/11 10:05:24;;;;;;;3.95;1.77;;;20.80;52.20;;;;;;5069850;28;43644;-62
2022/05/11 10:08:15;;;;;;;3.67;1.75;;;20.80;52.40;;;;;;5063179;28;43441;-61
2022/05/11 10:10:44;;;;;;;2.08;1.60;;;20.80;52.30;;;;;;5067024;28;44111;-62
2022/05/11 10:13:30;;;;;;;2.28;1.30;;;20.80;52.40;;;;;;5066034;27;44718;-62
2022/05/11 10:21:58;;;;;;;4.40;1.55;;;20.90;52.30;;;;;;5069762;28;43439;-62
2022/05/11 10:24:54;;;;;;;3.38;1.45;;;20.90;52.20;;;;;;5062642;28;44504;-62
2022/05/11 10:27:43;;;;;;;2.33;1.50;;;20.90;52.20;;;;;;5064665;28;43439;-62
2022/05/11 10:30:19;;;;;;;3.03;1.55;;;20.90;52.20;;;;;;5064081;28;43494;-62
2022/05/11 10:33:26;;;;;;;3.30;1.60;;;20.90;52.20;;;;;;5064406;28;43452;-62
2022/05/11 10:36:18;;;;;;;1.90;1.33;;;20.90;52.20;;;;;;5058777;28;44085;-62
2022/05/11 10:39:00;;;;;;;3.63;1.50;;;20.90;52.50;;;;;;5066098;28;43455;-62
2022/05/11 10:41:47;;;;;;;4.00;1.65;;;20.90;52.50;;;;;;5064782;28;43505;-62
2022/05/11 10:44:25;;;;;;;1.40;1.20;;;21.00;52.50;;;;;;5064519;28;43581;-62
2022/05/11 10:47:10;;;;;;;4.05;1.23;;;21.00;52.40;;;;;;5064426;28;44069;-62
2022/05/11 10:49:58;;;;;;;2.70;1.35;;;21.00;52.50;;;;;;5061823;28;43502;-62
2022/05/11 10:52:29;;;;;;;3.58;1.40;;;21.00;52.50;;;;;;5063112;28;43447;-62
2022/05/11 10:55:06;;;;;;;2.60;1.40;;;21.10;52.50;;;;;;5075152;28;43964;-63
2022/05/11 10:57:54;;;;;;;2.05;1.45;;;21.10;52.30;;;;;;5061616;28;43786;-62
2022/05/11 11:00:30;;;;;;;2.65;1.40;;;21.10;52.40;;;;;;5065417;28;43550;-62
2022/05/11 11:03:16;;;;;;;2.58;1.48;;;21.10;52.40;;;;;;5067742;28;43487;-62
2022/05/11 11:09:06;;;;;;;3.17;1.38;;;21.20;52.40;;;;;;5058595;28;44035;-62
2022/05/11 11:12:15;;;;;;;2.25;1.35;;;21.20;52.40;;;;;;5067648;28;43601;-62
2022/05/11 11:14:48;;;;;;;2.28;1.23;;;21.20;52.30;;;;;;5061190;28;43509;-62
2022/05/11 11:17:20;;;;;;;3.83;1.60;;;21.20;52.30;;;;;;5065732;28;43499;-62
2022/05/11 11:19:51;;;;;;;2.67;1.33;;;21.20;52.20;;;;;;5069050;28;43809;-61
2022/05/11 11:22:19;;;;;;;2.70;1.50;;;21.20;52.30;;;;;;5064993;28;43460;-62
2022/05/11 11:25:14;;;;;;;3.38;1.33;;;21.30;52.10;;;;;;5064310;28;43449;-62
2022/05/11 11:28:10;;;;;;;2.17;1.30;;;21.30;52.10;;;;;;5062552;28;43981;-62
2022/05/11 11:30:40;;;;;;;2.50;1.35;;;21.30;52.10;;;;;;5066914;28;44053;-63
2022/05/11 11:33:10;;;;;;;2.80;1.27;;;21.30;52.10;;;;;;5066912;28;43491;-62
2022/05/11 11:35:41;;;;;;;2.42;1.50;;;21.30;52.20;;;;;;5064917;28;43469;-62
2022/05/11 11:38:21;;;;;;;1.80;1.37;;;21.30;52.20;;;;;;5064747;28;43471;-61
2022/05/11 11:41:09;;;;;;;3.55;1.58;;;21.30;52.20;;;;;;5061018;28;43759;-62
2022/05/11 11:43:55;;;;;;;1.70;1.17;;;21.30;51.90;;;;;;5065679;28;43500;-62
2022/05/11 11:46:46;;;;;;;4.85;1.58;;;21.30;51.90;;;;;;5073409;27;43454;-61
2022/05/11 11:49:21;;;;;;;2.67;1.58;;;21.30;52.20;;;;;;5059415;28;43702;-62
2022/05/11 11:51:52;;;;;;;2.75;1.30;;;21.30;51.70;;;;;;5066352;28;44249;-62
2022/05/11 11:54:37;;;;;;;3.05;1.35;;;21.30;51.70;;;;;;5059450;28;43876;-62
2022/05/11 11:57:25;;;;;;;5.25;1.80;;;21.30;51.80;;;;;;5066175;28;43531;-62
2022/05/11 12:00:02;;;;;;;2.83;1.10;;;21.30;51.90;;;;;;5059588;28;43464;-62
2022/05/11 12:02:42;;;;;;;2.38;1.35;;;21.30;51.90;;;;;;5062623;28;45206;-62
2022/05/11 12:05:53;;;;;;;4.43;2.10;;;21.30;51.90;;;;;;5065405;28;44005;-62
2022/05/11 12:17:01;;;;;;;3.17;1.42;;;21.30;51.80;;;;;;5064539;28;43428;-62
2022/05/11 12:19:37;;;;;;;2.97;1.60;;;21.30;51.80;;;;;;5066467;28;43398;-62
2022/05/11 12:22:14;;;;;;;3.15;1.20;;;21.30;51.90;;;;;;5061085;28;43489;-62
2022/05/11 12:25:09;;;;;;;3.15;1.45;;;21.40;51.90;;;;;;5066298;28;44045;-62
2022/05/11 12:27:38;;;;;;;3.30;1.17;;;21.40;51.90;;;;;;5054990;28;43499;-62
2022/05/11 12:30:39;;;;;;;2.53;1.17;;;21.40;52.00;;;;;;5066471;28;43437;-62
2022/05/11 12:33:07;;;;;;;3.65;1.33;;;21.40;51.80;;;;;;5061723;28;43522;-62
2022/05/11 12:35:41;;;;;;;2.97;1.30;;;21.40;51.90;;;;;;5066157;28;44132;-62
2022/05/11 12:38:11;;;;;;;1.88;1.23;;;21.40;51.90;;;;;;5064783;28;43478;-60
2022/05/11 12:40:52;;;;;;;4.27;1.80;;;21.40;51.90;;;;;;5071449;28;44002;-60
2022/05/11 12:43:31;;;;;;;3.95;1.25;;;21.40;52.10;;;;;;5066025;28;43506;-60
2022/05/11 12:46:08;;;;;;;5.65;1.70;;;21.40;51.90;;;;;;5068247;28;44049;-61
2022/05/11 12:48:39;;;;;;;2.97;1.33;;;21.40;51.80;;;;;;5067718;27;43478;-62
2022/05/11 12:51:10;;;;;;;2.85;1.20;;;21.50;52.00;;;;;;5069650;28;43461;-62
2022/05/11 12:53:48;;;;;;;4.32;1.67;;;21.50;51.80;;;;;;5066094;28;43462;-62
2022/05/11 12:56:22;;;;;;;2.33;1.40;;;21.40;51.90;;;;;;5065992;28;45591;-62
2022/05/11 12:59:17;;;;;;;4.43;1.45;;;21.40;51.90;;;;;;5065895;28;43519;-62
2022/05/11 13:01:45;;;;;;;3.17;1.35;;;21.40;51.80;;;;;;5056430;28;43551;-61
2022/05/11 13:04:18;;;;;;;3.50;1.42;;;21.40;51.70;;;;;;5071084;27;43643;-61
2022/05/11 13:06:49;;;;;;;3.22;1.50;;;21.40;51.80;;;;;;5068809;28;44034;-62
2022/05/11 13:09:16;;;;;;;2.20;1.20;;;21.40;51.60;;;;;;5069378;28;43431;-62
2022/05/11 13:11:45;;;;;;;3.75;1.50;;;21.40;51.90;;;;;;5066690;28;43496;-62
2022/05/11 13:14:28;;;;;;;3.03;1.58;;;21.40;51.70;;;;;;5077326;28;43643;-62
2022/05/11 13:17:00;;;;;;;3.08;1.40;;;21.40;51.70;;;;;;5068128;28;44113;-62
2022/05/11 13:19:30;;;;;;;5.80;1.83;;;21.50;51.80;;;;;;5067380;28;43533;-62
2022/05/11 13:22:00;;;;;;;3.30;1.67;;;21.40;51.60;;;;;;5070826;28;43391;-62
2022/05/11 13:24:39;;;;;;;3.97;1.70;;;21.40;51.60;;;;;;5069178;28;43506;-62
2022/05/11 13:27:34;;;;;;;3.33;1.58;;;21.40;51.70;;;;;;5067790;28;44094;-62
2022/05/11 13:30:20;;;;;;;3.70;1.50;;;21.40;52.10;;;;;;5067913;28;43514;-62
2022/05/11 13:32:52;;;;;;;3.00;1.45;;;21.40;52.10;;;;;;5068875;28;43438;-62
2022/05/11 13:35:40;;;;;;;3.22;1.60;;;21.40;52.10;;;;;;5070838;28;43585;-62
2022/05/11 13:38:10;;;;;;;2.33;1.17;;;21.50;52.00;;;;;;5054653;28;45095;-62
2022/05/11 13:41:00;;;;;;;2.28;1.50;;;21.50;51.90;;;;;;5068487;28;43517;-61
2022/05/11 13:43:29;;;;;;;2.22;1.20;;;21.50;51.60;;;;;;5068570;28;43433;-61
2022/05/11 13:46:10;;;;;;;2.45;1.45;;;21.50;51.70;;;;;;5066130;28;43511;-61
2022/05/11 13:48:45;;;;;;;5.13;2.10;;;21.50;51.50;;;;;;5066944;28;43801;-62
2022/05/11 13:51:18;;;;;;;3.60;1.60;;;21.50;51.30;;;;;;5082699;27;43465;-61
2022/05/11 13:53:52;;;;;;;3.47;1.80;;;21.50;51.20;;;;;;5068314;28;43477;-62
2022/05/11 13:56:28;;;;;;;3.75;1.85;;;21.50;51.00;;;;;;5066208;28;43557;-61
2022/05/11 13:58:57;;;;;;;3.83;1.80;;;21.50;51.60;;;;;;5067618;28;43882;-62
2022/05/11 14:01:35;;;;;;;3.60;1.70;;;21.50;52.30;;;;;;5068007;28;43440;-62